メインページ
METAR-TAF:

METAR-TAF

空港 :

ハマダーン, イラン

緯度: 34-52-05N, 経度: 048-33-08E, 海抜: 1757m

現時点の気象観測

当レポートは46分前の05:00(UTC)に作成
西/北西の風 2kt
気温 2°C
湿度 64%
気圧 1017 hPa
視程10km以上
1,500メートル以下は雲なし、積乱雲なし

METAR: OIHH 210500Z 30002KT CAVOK 02/M04 Q1017 A3004

時間: 09:16 (05:46 UTC)


TAF: 見つかりません

4,000以上の空港の気象観測と天気予報(METAR報とTAF報)

利用可能な観測所は地図上に黄色い丸と赤い丸で示す。

丸の上にカーソルを重ねると観測所名を参照できる。

次にクリックすると気象観測と天気予報を参照できる。

マップの切り替え:黒色「×」印の緑ボタンをクリックして拡大、「-」印の緑ボタンをクリックして縮小、緑色の三角印をクリックして隣りの地図に切り替え


METAR-TAF: